GLO1782 SBBR-SBEG
Flight info
| Callsign | GLO1782 |
|---|---|
| Flight time | 2h 38m |
| Altitude | 36000 |
| Route | UGUGA UM409 UKAGA/N0446F380 UM409 NEMEL DCT IRUMO |
| Aircraft | B738/M-SDE2E3FGHIRWXY/LB1 |
Departure
| Time | 2026-04-25 02:13 |
|---|---|
| Airport | Presidente Juscelino Kubitschek International Airport (SBBR) |
Arrival
| Time | 2026-04-25 04:52 |
|---|---|
| Airport | Eduardo Gomes International Airport (SBEG) |
| Time | Latitude | Longitude | Altitude | Speed | Heading |
|---|---|---|---|---|---|
| 2026-04-25 01:43 | -15.86855 | -47.91829 | 3464 ft | 0 kts | 356° |
| 2026-04-25 02:02 | -15.86858 | -47.91829 | 3464 ft | 2 kts | 356° |
| 2026-04-25 02:02 | -15.86874 | -47.91828 | 3546 ft | 2 kts | 356° |
| 2026-04-25 02:02 | -15.86891 | -47.91827 | 3447 ft | 2 kts | 357° |
| 2026-04-25 02:03 | -15.86907 | -47.91829 | 3401 ft | 2 kts | 60° |
| 2026-04-25 02:03 | -15.86911 | -47.91840 | 3410 ft | 1 kts | 82° |
| 2026-04-25 02:03 | -15.86911 | -47.91841 | 3408 ft | 0 kts | 82° |
| 2026-04-25 02:06 | -15.86911 | -47.91840 | 3464 ft | 1 kts | 83° |
| 2026-04-25 02:06 | -15.86909 | -47.91814 | 3464 ft | 7 kts | 86° |
| 2026-04-25 02:06 | -15.86905 | -47.91752 | 3464 ft | 10 kts | 86° |
| 2026-04-25 02:06 | -15.86901 | -47.91680 | 3464 ft | 10 kts | 86° |
| 2026-04-25 02:07 | -15.86883 | -47.91614 | 3464 ft | 10 kts | 37° |
| 2026-04-25 02:07 | -15.86816 | -47.91609 | 3463 ft | 10 kts | 357° |
| 2026-04-25 02:07 | -15.86752 | -47.91614 | 3464 ft | 9 kts | 355° |
| 2026-04-25 02:07 | -15.86688 | -47.91618 | 3464 ft | 9 kts | 356° |
| 2026-04-25 02:08 | -15.86626 | -47.91622 | 3463 ft | 9 kts | 356° |
| 2026-04-25 02:08 | -15.86565 | -47.91626 | 3464 ft | 9 kts | 356° |
| 2026-04-25 02:08 | -15.86505 | -47.91636 | 3464 ft | 10 kts | 333° |
| 2026-04-25 02:08 | -15.86483 | -47.91703 | 3463 ft | 12 kts | 267° |
| 2026-04-25 02:09 | -15.86488 | -47.91795 | 3463 ft | 14 kts | 266° |
| 2026-04-25 02:09 | -15.86495 | -47.91904 | 3461 ft | 16 kts | 265° |
| 2026-04-25 02:09 | -15.86503 | -47.92029 | 3461 ft | 19 kts | 266° |
| 2026-04-25 02:09 | -15.86512 | -47.92169 | 3461 ft | 20 kts | 266° |
| 2026-04-25 02:10 | -15.86522 | -47.92318 | 3461 ft | 21 kts | 266° |
| 2026-04-25 02:10 | -15.86532 | -47.92470 | 3461 ft | 21 kts | 266° |
| 2026-04-25 02:10 | -15.86541 | -47.92618 | 3460 ft | 20 kts | 266° |
| 2026-04-25 02:10 | -15.86543 | -47.92740 | 3460 ft | 14 kts | 291° |
| 2026-04-25 02:11 | -15.86488 | -47.92766 | 3460 ft | 0 kts | 356° |
| 2026-04-25 02:11 | -15.86478 | -47.92767 | 3458 ft | 4 kts | 356° |
| 2026-04-25 02:11 | -15.86441 | -47.92769 | 3460 ft | 7 kts | 0° |
| 2026-04-25 02:12 | -15.86395 | -47.92741 | 3459 ft | 9 kts | 44° |
| 2026-04-25 02:12 | -15.86354 | -47.92682 | 3459 ft | 10 kts | 76° |
| 2026-04-25 02:12 | -15.86348 | -47.92597 | 3461 ft | 24 kts | 85° |
| 2026-04-25 02:12 | -15.86317 | -47.92114 | 3465 ft | 108 kts | 86° |
| 2026-04-25 02:13 | -15.86247 | -47.91072 | 3473 ft | 178 kts | 86° |
| 2026-04-25 02:13 | -15.86192 | -47.89646 | 3924 ft | 208 kts | 90° |
| 2026-04-25 02:13 | -15.86177 | -47.88150 | 5053 ft | 202 kts | 87° |
| 2026-04-25 02:13 | -15.86056 | -47.86606 | 5604 ft | 229 kts | 84° |
| 2026-04-25 02:14 | -15.85898 | -47.84852 | 5844 ft | 256 kts | 85° |
| 2026-04-25 02:14 | -15.85749 | -47.82955 | 6337 ft | 269 kts | 85° |
| 2026-04-25 02:14 | -15.85609 | -47.80992 | 6986 ft | 275 kts | 85° |
| 2026-04-25 02:14 | -15.85438 | -47.78999 | 7684 ft | 279 kts | 77° |
| 2026-04-25 02:15 | -15.84672 | -47.77172 | 8360 ft | 282 kts | 53° |
| 2026-04-25 02:15 | -15.83236 | -47.75784 | 9063 ft | 285 kts | 30° |
| 2026-04-25 02:15 | -15.81382 | -47.75055 | 9768 ft | 289 kts | 7° |
| 2026-04-25 02:15 | -15.79397 | -47.75250 | 10098 ft | 290 kts | 340° |
| 2026-04-25 02:16 | -15.77556 | -47.76126 | 10172 ft | 293 kts | 327° |
| 2026-04-25 02:16 | -15.75909 | -47.77491 | 10345 ft | 314 kts | 318° |
| 2026-04-25 02:16 | -15.74274 | -47.79066 | 10592 ft | 332 kts | 316° |
| 2026-04-25 02:16 | -15.72585 | -47.80747 | 11127 ft | 338 kts | 316° |
| 2026-04-25 02:17 | -15.70876 | -47.82448 | 11792 ft | 341 kts | 316° |
| 2026-04-25 02:17 | -15.69154 | -47.84150 | 12469 ft | 343 kts | 316° |
| 2026-04-25 02:17 | -15.67406 | -47.85863 | 13122 ft | 347 kts | 316° |
| 2026-04-25 02:17 | -15.65639 | -47.87583 | 13793 ft | 350 kts | 316° |
| 2026-04-25 02:18 | -15.63871 | -47.89295 | 14373 ft | 353 kts | 317° |
| 2026-04-25 02:18 | -15.62052 | -47.91049 | 14909 ft | 358 kts | 317° |
| 2026-04-25 02:18 | -15.60209 | -47.92823 | 15448 ft | 363 kts | 317° |
| 2026-04-25 02:18 | -15.58977 | -47.94007 | 15823 ft | 365 kts | 317° |
| 2026-04-25 02:19 | -15.56460 | -47.96422 | 16584 ft | 370 kts | 317° |
| 2026-04-25 02:19 | -15.55204 | -47.97627 | 16928 ft | 374 kts | 317° |
| 2026-04-25 02:19 | -15.52653 | -48.00072 | 17616 ft | 380 kts | 318° |
| 2026-04-25 02:19 | -15.50698 | -48.01945 | 18122 ft | 384 kts | 318° |
| 2026-04-25 02:20 | -15.49362 | -48.03224 | 18471 ft | 387 kts | 318° |
| 2026-04-25 02:20 | -15.47400 | -48.05103 | 18939 ft | 389 kts | 318° |
| 2026-04-25 02:20 | -15.45402 | -48.07016 | 19406 ft | 392 kts | 318° |
| 2026-04-25 02:20 | -15.43387 | -48.08944 | 19858 ft | 395 kts | 318° |
| 2026-04-25 02:21 | -15.41354 | -48.10889 | 20305 ft | 399 kts | 318° |
| 2026-04-25 02:21 | -15.39308 | -48.12846 | 20743 ft | 402 kts | 319° |
| 2026-04-25 02:21 | -15.37240 | -48.14823 | 21179 ft | 405 kts | 319° |
| 2026-04-25 02:21 | -15.35184 | -48.16789 | 21601 ft | 408 kts | 319° |
| 2026-04-25 02:22 | -15.33088 | -48.18792 | 22017 ft | 412 kts | 319° |
| 2026-04-25 02:22 | -15.30975 | -48.20810 | 22435 ft | 415 kts | 319° |
| 2026-04-25 02:22 | -15.28839 | -48.22850 | 22852 ft | 418 kts | 319° |
| 2026-04-25 02:22 | -15.26692 | -48.24900 | 23248 ft | 421 kts | 319° |
| 2026-04-25 02:23 | -15.24521 | -48.26972 | 23636 ft | 424 kts | 319° |
| 2026-04-25 02:23 | -15.22368 | -48.29028 | 23953 ft | 427 kts | 319° |
| 2026-04-25 02:23 | -15.20176 | -48.31119 | 24293 ft | 429 kts | 319° |
| 2026-04-25 02:23 | -15.17970 | -48.33222 | 24638 ft | 431 kts | 319° |
| 2026-04-25 02:24 | -15.15753 | -48.35337 | 24974 ft | 433 kts | 319° |
| 2026-04-25 02:24 | -15.13526 | -48.37460 | 25297 ft | 436 kts | 319° |
| 2026-04-25 02:24 | -15.11290 | -48.39590 | 25626 ft | 438 kts | 319° |
| 2026-04-25 02:24 | -15.09065 | -48.41710 | 25947 ft | 441 kts | 319° |
| 2026-04-25 02:25 | -15.06803 | -48.43864 | 26264 ft | 443 kts | 319° |
| 2026-04-25 02:25 | -15.04525 | -48.46033 | 26578 ft | 446 kts | 319° |
| 2026-04-25 02:25 | -15.02231 | -48.48216 | 26894 ft | 448 kts | 319° |
| 2026-04-25 02:25 | -14.99931 | -48.50405 | 27201 ft | 450 kts | 319° |
| 2026-04-25 02:26 | -14.97617 | -48.52605 | 27514 ft | 452 kts | 319° |
| 2026-04-25 02:26 | -14.95290 | -48.54818 | 27818 ft | 455 kts | 319° |
| 2026-04-25 02:26 | -14.92956 | -48.57037 | 28110 ft | 457 kts | 319° |
| 2026-04-25 02:26 | -14.90605 | -48.59271 | 28397 ft | 459 kts | 319° |
| 2026-04-25 02:27 | -14.88275 | -48.61485 | 28688 ft | 462 kts | 319° |
| 2026-04-25 02:27 | -14.85902 | -48.63738 | 28985 ft | 463 kts | 319° |
| 2026-04-25 02:27 | -14.83525 | -48.65995 | 29268 ft | 466 kts | 319° |
| 2026-04-25 02:27 | -14.81127 | -48.68271 | 29535 ft | 468 kts | 319° |
| 2026-04-25 02:28 | -14.78725 | -48.70549 | 29812 ft | 470 kts | 319° |
| 2026-04-25 02:28 | -14.76309 | -48.72841 | 30075 ft | 472 kts | 319° |
| 2026-04-25 02:28 | -14.73885 | -48.75140 | 30310 ft | 474 kts | 319° |
| 2026-04-25 02:28 | -14.71450 | -48.77448 | 30562 ft | 475 kts | 319° |
| 2026-04-25 02:29 | -14.69037 | -48.79735 | 30890 ft | 473 kts | 319° |
| 2026-04-25 02:29 | -14.66618 | -48.82028 | 31270 ft | 471 kts | 319° |
| 2026-04-25 02:29 | -14.64213 | -48.84306 | 31636 ft | 469 kts | 320° |
| 2026-04-25 02:29 | -14.61804 | -48.86587 | 31974 ft | 468 kts | 320° |
| 2026-04-25 02:30 | -14.59400 | -48.88863 | 32301 ft | 468 kts | 320° |
| 2026-04-25 02:30 | -14.56995 | -48.91138 | 32653 ft | 467 kts | 320° |
| 2026-04-25 02:30 | -14.54631 | -48.93374 | 33022 ft | 465 kts | 320° |
| 2026-04-25 02:30 | -14.52242 | -48.95633 | 33385 ft | 464 kts | 320° |
| 2026-04-25 02:31 | -14.49863 | -48.97882 | 33722 ft | 463 kts | 320° |
| 2026-04-25 02:31 | -14.47487 | -49.00126 | 34050 ft | 462 kts | 320° |
| 2026-04-25 02:31 | -14.45120 | -49.02362 | 34347 ft | 461 kts | 320° |
| 2026-04-25 02:31 | -14.42754 | -49.04597 | 34641 ft | 460 kts | 320° |
| 2026-04-25 02:32 | -14.40427 | -49.06794 | 34917 ft | 459 kts | 320° |
| 2026-04-25 02:32 | -14.38065 | -49.09023 | 35175 ft | 459 kts | 320° |
| 2026-04-25 02:32 | -14.35711 | -49.11244 | 35454 ft | 458 kts | 320° |
| 2026-04-25 02:32 | -14.33357 | -49.13465 | 35722 ft | 457 kts | 320° |
| 2026-04-25 02:33 | -14.31008 | -49.15679 | 35975 ft | 457 kts | 320° |
| 2026-04-25 02:33 | -14.26274 | -49.20140 | 35999 ft | 462 kts | 320° |
| 2026-04-25 02:34 | -14.21569 | -49.24572 | 35986 ft | 458 kts | 320° |
| 2026-04-25 02:34 | -14.16892 | -49.28978 | 35993 ft | 454 kts | 320° |
| 2026-04-25 02:35 | -14.12217 | -49.33377 | 35998 ft | 453 kts | 320° |
| 2026-04-25 02:35 | -14.07573 | -49.37743 | 35988 ft | 453 kts | 320° |
| 2026-04-25 02:36 | -14.02914 | -49.42121 | 35988 ft | 453 kts | 320° |
| 2026-04-25 02:36 | -13.98244 | -49.46507 | 35982 ft | 454 kts | 320° |
| 2026-04-25 02:37 | -13.93605 | -49.50861 | 35981 ft | 454 kts | 320° |
| 2026-04-25 02:37 | -13.88928 | -49.55250 | 35981 ft | 454 kts | 320° |
| 2026-04-25 02:38 | -13.84250 | -49.59636 | 35980 ft | 455 kts | 320° |
| 2026-04-25 02:38 | -13.79593 | -49.64000 | 35975 ft | 455 kts | 320° |
| 2026-04-25 02:39 | -13.74904 | -49.68392 | 35977 ft | 455 kts | 320° |
| 2026-04-25 02:39 | -13.70215 | -49.72782 | 35975 ft | 455 kts | 320° |
| 2026-04-25 02:40 | -13.65550 | -49.77145 | 35973 ft | 455 kts | 320° |
| 2026-04-25 02:40 | -13.60848 | -49.81542 | 35974 ft | 455 kts | 320° |
| 2026-04-25 02:41 | -13.56190 | -49.85895 | 35970 ft | 455 kts | 320° |
| 2026-04-25 02:41 | -13.51509 | -49.90267 | 35974 ft | 454 kts | 320° |
| 2026-04-25 02:42 | -13.46825 | -49.94639 | 35969 ft | 454 kts | 320° |
| 2026-04-25 02:42 | -13.42155 | -49.98997 | 35973 ft | 453 kts | 320° |
| 2026-04-25 02:43 | -13.37514 | -50.03324 | 35971 ft | 453 kts | 320° |
| 2026-04-25 02:43 | -13.32847 | -50.07673 | 35974 ft | 452 kts | 320° |
| 2026-04-25 02:44 | -13.28194 | -50.12007 | 35972 ft | 451 kts | 320° |
| 2026-04-25 02:44 | -13.23544 | -50.16336 | 35972 ft | 450 kts | 320° |
| 2026-04-25 02:45 | -13.18920 | -50.20638 | 35973 ft | 449 kts | 320° |
| 2026-04-25 02:45 | -13.14288 | -50.24946 | 35968 ft | 448 kts | 320° |
| 2026-04-25 02:46 | -13.09690 | -50.29220 | 35970 ft | 448 kts | 320° |
| 2026-04-25 02:46 | -13.05066 | -50.33515 | 35970 ft | 447 kts | 320° |
| 2026-04-25 02:47 | -13.00462 | -50.37790 | 35972 ft | 446 kts | 320° |
| 2026-04-25 02:47 | -12.95887 | -50.42036 | 35971 ft | 445 kts | 320° |
| 2026-04-25 02:48 | -12.91296 | -50.46293 | 35969 ft | 444 kts | 320° |
| 2026-04-25 02:48 | -12.86714 | -50.50541 | 35969 ft | 444 kts | 320° |
| 2026-04-25 02:49 | -12.82132 | -50.54786 | 35969 ft | 443 kts | 320° |
| 2026-04-25 02:49 | -12.77558 | -50.59022 | 35972 ft | 443 kts | 320° |
| 2026-04-25 02:50 | -12.73015 | -50.63226 | 35973 ft | 443 kts | 319° |
| 2026-04-25 02:50 | -12.68439 | -50.67460 | 35970 ft | 443 kts | 319° |
| 2026-04-25 02:51 | -12.63854 | -50.71699 | 35970 ft | 443 kts | 319° |
| 2026-04-25 02:51 | -12.59270 | -50.75935 | 35970 ft | 443 kts | 319° |
| 2026-04-25 02:52 | -12.54721 | -50.80138 | 35971 ft | 443 kts | 319° |
| 2026-04-25 02:52 | -12.50131 | -50.84376 | 35971 ft | 443 kts | 319° |
| 2026-04-25 02:53 | -12.45544 | -50.88608 | 35974 ft | 444 kts | 320° |
| 2026-04-25 02:53 | -12.40982 | -50.92816 | 35974 ft | 444 kts | 320° |
| 2026-04-25 02:54 | -12.36385 | -50.97054 | 35976 ft | 444 kts | 320° |
| 2026-04-25 02:54 | -12.31793 | -51.01285 | 35976 ft | 444 kts | 320° |
| 2026-04-25 02:55 | -12.27202 | -51.05513 | 35976 ft | 444 kts | 320° |
| 2026-04-25 02:55 | -12.22605 | -51.09746 | 35979 ft | 444 kts | 320° |
| 2026-04-25 02:56 | -12.18041 | -51.13945 | 35980 ft | 443 kts | 320° |
| 2026-04-25 02:56 | -12.13456 | -51.18161 | 35977 ft | 443 kts | 320° |
| 2026-04-25 02:57 | -12.08869 | -51.22378 | 35979 ft | 443 kts | 320° |
| 2026-04-25 02:57 | -12.04289 | -51.26585 | 35980 ft | 442 kts | 320° |
| 2026-04-25 02:58 | -11.99745 | -51.30759 | 35979 ft | 441 kts | 320° |
| 2026-04-25 02:58 | -11.95179 | -51.34949 | 35986 ft | 441 kts | 320° |
| 2026-04-25 02:59 | -11.90615 | -51.39136 | 35982 ft | 440 kts | 320° |
| 2026-04-25 02:59 | -11.86050 | -51.43323 | 35982 ft | 440 kts | 320° |
| 2026-04-25 03:00 | -11.81512 | -51.47481 | 35987 ft | 440 kts | 320° |
| 2026-04-25 03:00 | -11.76957 | -51.51655 | 35988 ft | 440 kts | 320° |
| 2026-04-25 03:01 | -11.72396 | -51.55832 | 35989 ft | 440 kts | 319° |
| 2026-04-25 03:01 | -11.67834 | -51.60007 | 35990 ft | 440 kts | 319° |
| 2026-04-25 03:02 | -11.63271 | -51.64182 | 35990 ft | 440 kts | 319° |
| 2026-04-25 03:02 | -11.58725 | -51.68338 | 35988 ft | 441 kts | 319° |
| 2026-04-25 03:03 | -11.54145 | -51.72525 | 35991 ft | 442 kts | 319° |
| 2026-04-25 03:03 | -11.49585 | -51.76691 | 35987 ft | 443 kts | 319° |
| 2026-04-25 03:04 | -11.44982 | -51.80895 | 35983 ft | 443 kts | 319° |
| 2026-04-25 03:04 | -11.40376 | -51.85099 | 35993 ft | 444 kts | 319° |
| 2026-04-25 03:05 | -11.33493 | -51.91378 | 35998 ft | 445 kts | 319° |
| 2026-04-25 03:05 | -11.28878 | -51.95586 | 35990 ft | 445 kts | 319° |
| 2026-04-25 03:06 | -11.24249 | -51.99805 | 35990 ft | 445 kts | 319° |
| 2026-04-25 03:06 | -11.19620 | -52.04021 | 35992 ft | 445 kts | 319° |
| 2026-04-25 03:07 | -11.15002 | -52.08226 | 35993 ft | 445 kts | 319° |
| 2026-04-25 03:07 | -11.10414 | -52.12402 | 35994 ft | 445 kts | 319° |
| 2026-04-25 03:08 | -11.05805 | -52.16595 | 35992 ft | 444 kts | 319° |
| 2026-04-25 03:08 | -11.01969 | -52.20083 | 35996 ft | 444 kts | 319° |
| 2026-04-25 03:09 | -10.97359 | -52.24274 | 35994 ft | 443 kts | 319° |
| 2026-04-25 03:09 | -10.92755 | -52.28457 | 35991 ft | 443 kts | 319° |
| 2026-04-25 03:10 | -10.88158 | -52.32632 | 35991 ft | 442 kts | 319° |
| 2026-04-25 03:10 | -10.83596 | -52.36774 | 35991 ft | 442 kts | 319° |
| 2026-04-25 03:11 | -10.79009 | -52.40936 | 35995 ft | 442 kts | 319° |
| 2026-04-25 03:11 | -10.74427 | -52.45092 | 35992 ft | 441 kts | 319° |
| 2026-04-25 03:12 | -10.69836 | -52.49255 | 35992 ft | 442 kts | 319° |
| 2026-04-25 03:12 | -10.65243 | -52.53417 | 35994 ft | 442 kts | 319° |
| 2026-04-25 03:13 | -10.60670 | -52.57559 | 35995 ft | 442 kts | 319° |
| 2026-04-25 03:13 | -10.56069 | -52.61726 | 35995 ft | 443 kts | 319° |
| 2026-04-25 03:14 | -10.51490 | -52.65871 | 36000 ft | 443 kts | 319° |
| 2026-04-25 03:14 | -10.46876 | -52.70045 | 35997 ft | 444 kts | 319° |
| 2026-04-25 03:15 | -10.42251 | -52.74227 | 35994 ft | 444 kts | 319° |
| 2026-04-25 03:15 | -10.37627 | -52.78408 | 35994 ft | 445 kts | 319° |
| 2026-04-25 03:16 | -10.33026 | -52.82565 | 35994 ft | 445 kts | 319° |
| 2026-04-25 03:16 | -10.28387 | -52.86756 | 35994 ft | 445 kts | 319° |
| 2026-04-25 03:17 | -10.23749 | -52.90943 | 35995 ft | 446 kts | 319° |
| 2026-04-25 03:17 | -10.19116 | -52.95125 | 35997 ft | 445 kts | 319° |
| 2026-04-25 03:18 | -10.14509 | -52.99281 | 36000 ft | 445 kts | 319° |
| 2026-04-25 03:18 | -10.09875 | -53.03461 | 36000 ft | 445 kts | 320° |
| 2026-04-25 03:19 | -10.05235 | -53.07643 | 35999 ft | 445 kts | 320° |
| 2026-04-25 03:19 | -10.00608 | -53.11812 | 35995 ft | 444 kts | 320° |
| 2026-04-25 03:20 | -9.96015 | -53.15950 | 36004 ft | 444 kts | 320° |
| 2026-04-25 03:20 | -9.91394 | -53.20110 | 36001 ft | 443 kts | 320° |
| 2026-04-25 03:21 | -9.86767 | -53.24274 | 36006 ft | 443 kts | 320° |
| 2026-04-25 03:21 | -9.82181 | -53.28400 | 36005 ft | 443 kts | 320° |
| 2026-04-25 03:22 | -9.77564 | -53.32552 | 36007 ft | 443 kts | 320° |
| 2026-04-25 03:22 | -9.72940 | -53.36709 | 36005 ft | 443 kts | 320° |
| 2026-04-25 03:23 | -9.68349 | -53.40835 | 36007 ft | 443 kts | 320° |
| 2026-04-25 03:23 | -9.63719 | -53.44994 | 36006 ft | 444 kts | 319° |
| 2026-04-25 03:24 | -9.59093 | -53.49148 | 36008 ft | 444 kts | 319° |
| 2026-04-25 03:24 | -9.54495 | -53.53275 | 36005 ft | 444 kts | 319° |
| 2026-04-25 03:25 | -9.49862 | -53.57432 | 36010 ft | 444 kts | 319° |
| 2026-04-25 03:25 | -9.45234 | -53.61583 | 36005 ft | 444 kts | 319° |
| 2026-04-25 03:26 | -9.40604 | -53.65734 | 36008 ft | 444 kts | 319° |
| 2026-04-25 03:26 | -9.36005 | -53.69855 | 36009 ft | 444 kts | 320° |
| 2026-04-25 03:27 | -9.31376 | -53.74003 | 36009 ft | 444 kts | 320° |
| 2026-04-25 03:27 | -9.26743 | -53.78152 | 36005 ft | 444 kts | 320° |
| 2026-04-25 03:28 | -9.22109 | -53.82301 | 36010 ft | 444 kts | 320° |
| 2026-04-25 03:28 | -9.17514 | -53.86413 | 36008 ft | 444 kts | 320° |
| 2026-04-25 03:29 | -9.12882 | -53.90557 | 36011 ft | 444 kts | 320° |
| 2026-04-25 03:29 | -9.08256 | -53.94694 | 36010 ft | 444 kts | 320° |
| 2026-04-25 03:30 | -9.03626 | -53.98833 | 36011 ft | 444 kts | 320° |
| 2026-04-25 03:30 | -8.98990 | -54.02976 | 36011 ft | 444 kts | 320° |
| 2026-04-25 03:31 | -8.94381 | -54.07093 | 36013 ft | 445 kts | 320° |
| 2026-04-25 03:31 | -8.89731 | -54.11246 | 36015 ft | 445 kts | 320° |
| 2026-04-25 03:32 | -8.85067 | -54.15409 | 36013 ft | 446 kts | 320° |
| 2026-04-25 03:32 | -8.80434 | -54.19544 | 36014 ft | 447 kts | 320° |
| 2026-04-25 03:33 | -8.75764 | -54.23709 | 36013 ft | 448 kts | 320° |
| 2026-04-25 03:33 | -8.71069 | -54.27896 | 36016 ft | 448 kts | 320° |
| 2026-04-25 03:34 | -8.66408 | -54.32052 | 36014 ft | 449 kts | 320° |
| 2026-04-25 03:34 | -8.61720 | -54.36230 | 36015 ft | 449 kts | 320° |
| 2026-04-25 03:35 | -8.57143 | -54.40533 | 36014 ft | 450 kts | 315° |
| 2026-04-25 03:35 | -8.52885 | -54.45190 | 36015 ft | 451 kts | 313° |
| 2026-04-25 03:36 | -8.48679 | -54.49884 | 36006 ft | 450 kts | 314° |
| 2026-04-25 03:36 | -8.44468 | -54.54530 | 36011 ft | 450 kts | 314° |
| 2026-04-25 03:37 | -8.40213 | -54.59179 | 36009 ft | 450 kts | 314° |
| 2026-04-25 03:37 | -8.35956 | -54.63813 | 36013 ft | 449 kts | 314° |
| 2026-04-25 03:38 | -8.31730 | -54.68410 | 36007 ft | 449 kts | 314° |
| 2026-04-25 03:38 | -8.27484 | -54.73029 | 36011 ft | 448 kts | 314° |
| 2026-04-25 03:39 | -8.23241 | -54.77644 | 36004 ft | 448 kts | 314° |
| 2026-04-25 03:39 | -8.18997 | -54.82259 | 36005 ft | 448 kts | 314° |
| 2026-04-25 03:40 | -8.14759 | -54.86866 | 36004 ft | 448 kts | 314° |
| 2026-04-25 03:40 | -8.10534 | -54.91457 | 36008 ft | 447 kts | 314° |
| 2026-04-25 03:41 | -8.06298 | -54.96059 | 36003 ft | 447 kts | 314° |
| 2026-04-25 03:41 | -8.02059 | -55.00663 | 36004 ft | 448 kts | 314° |
| 2026-04-25 03:42 | -7.97811 | -55.05274 | 36002 ft | 448 kts | 314° |
| 2026-04-25 03:42 | -7.93597 | -55.09848 | 36002 ft | 448 kts | 314° |
| 2026-04-25 03:43 | -7.89347 | -55.14458 | 36005 ft | 448 kts | 314° |
| 2026-04-25 03:43 | -7.85105 | -55.19059 | 36000 ft | 448 kts | 314° |
| 2026-04-25 03:44 | -7.80851 | -55.23671 | 36004 ft | 448 kts | 314° |
| 2026-04-25 03:44 | -7.76618 | -55.28259 | 36002 ft | 448 kts | 314° |
| 2026-04-25 03:45 | -7.72373 | -55.32858 | 36004 ft | 448 kts | 314° |
| 2026-04-25 03:45 | -7.68123 | -55.37462 | 35999 ft | 449 kts | 314° |
| 2026-04-25 03:46 | -7.63854 | -55.42085 | 36003 ft | 449 kts | 314° |
| 2026-04-25 03:46 | -7.59623 | -55.46664 | 36009 ft | 449 kts | 314° |
| 2026-04-25 03:47 | -7.55361 | -55.51276 | 36005 ft | 449 kts | 314° |
| 2026-04-25 03:47 | -7.51100 | -55.55887 | 36002 ft | 449 kts | 314° |
| 2026-04-25 03:48 | -7.46861 | -55.60471 | 35992 ft | 449 kts | 314° |
| 2026-04-25 03:48 | -7.42603 | -55.65074 | 36005 ft | 449 kts | 314° |
| 2026-04-25 03:49 | -7.38348 | -55.69673 | 36003 ft | 449 kts | 314° |
| 2026-04-25 03:49 | -7.34081 | -55.74284 | 36007 ft | 449 kts | 314° |
| 2026-04-25 03:50 | -7.29809 | -55.78897 | 36004 ft | 450 kts | 314° |
| 2026-04-25 03:50 | -7.25534 | -55.83514 | 36001 ft | 450 kts | 314° |
| 2026-04-25 03:51 | -7.21284 | -55.88102 | 36005 ft | 451 kts | 314° |
| 2026-04-25 03:51 | -7.17000 | -55.92725 | 36003 ft | 451 kts | 314° |
| 2026-04-25 03:52 | -7.12706 | -55.97358 | 36000 ft | 452 kts | 314° |
| 2026-04-25 03:52 | -7.08409 | -56.01993 | 36004 ft | 452 kts | 314° |
| 2026-04-25 03:53 | -7.04142 | -56.06593 | 36003 ft | 453 kts | 314° |
| 2026-04-25 03:53 | -6.99837 | -56.11234 | 35996 ft | 453 kts | 314° |
| 2026-04-25 03:54 | -6.95517 | -56.15888 | 36001 ft | 454 kts | 314° |
| 2026-04-25 03:54 | -6.91226 | -56.20512 | 35994 ft | 454 kts | 314° |
| 2026-04-25 03:55 | -6.86907 | -56.25163 | 35998 ft | 455 kts | 315° |
| 2026-04-25 03:55 | -6.82586 | -56.29816 | 36001 ft | 455 kts | 315° |
| 2026-04-25 03:56 | -6.78257 | -56.34476 | 35992 ft | 455 kts | 315° |
| 2026-04-25 03:56 | -6.74657 | -56.38349 | 36000 ft | 455 kts | 315° |
| 2026-04-25 03:57 | -6.70330 | -56.43004 | 35997 ft | 455 kts | 315° |
| 2026-04-25 03:57 | -6.65289 | -56.48426 | 35987 ft | 455 kts | 315° |
| 2026-04-25 03:58 | -6.61692 | -56.52294 | 35998 ft | 455 kts | 315° |
| 2026-04-25 03:58 | -6.57362 | -56.56948 | 36004 ft | 455 kts | 315° |
| 2026-04-25 03:59 | -6.53032 | -56.61601 | 35984 ft | 455 kts | 315° |
| 2026-04-25 03:59 | -6.48710 | -56.66245 | 35993 ft | 455 kts | 315° |
| 2026-04-25 04:00 | -6.44407 | -56.70866 | 35990 ft | 454 kts | 315° |
| 2026-04-25 04:00 | -6.40082 | -56.75510 | 35990 ft | 454 kts | 315° |
| 2026-04-25 04:01 | -6.35757 | -56.80153 | 35991 ft | 454 kts | 315° |
| 2026-04-25 04:01 | -6.31425 | -56.84802 | 35980 ft | 455 kts | 315° |
| 2026-04-25 04:02 | -6.27126 | -56.89414 | 35990 ft | 455 kts | 315° |
| 2026-04-25 04:02 | -6.22792 | -56.94063 | 35985 ft | 455 kts | 315° |
| 2026-04-25 04:03 | -6.18454 | -56.98715 | 35981 ft | 455 kts | 315° |
| 2026-04-25 04:03 | -6.14146 | -57.03334 | 35984 ft | 456 kts | 315° |
| 2026-04-25 04:04 | -6.09800 | -57.07991 | 35982 ft | 456 kts | 315° |
| 2026-04-25 04:04 | -6.05464 | -57.12638 | 35988 ft | 456 kts | 315° |
| 2026-04-25 04:05 | -6.01141 | -57.17269 | 35983 ft | 456 kts | 315° |
| 2026-04-25 04:05 | -5.96787 | -57.21932 | 35980 ft | 456 kts | 315° |
| 2026-04-25 04:06 | -5.92444 | -57.26583 | 35979 ft | 456 kts | 315° |
| 2026-04-25 04:06 | -5.88093 | -57.31240 | 35981 ft | 456 kts | 315° |
| 2026-04-25 04:07 | -5.83778 | -57.35859 | 35977 ft | 456 kts | 315° |
| 2026-04-25 04:07 | -5.79430 | -57.40510 | 35975 ft | 456 kts | 315° |
| 2026-04-25 04:08 | -5.75083 | -57.45161 | 35977 ft | 455 kts | 315° |
| 2026-04-25 04:08 | -5.70743 | -57.49802 | 35977 ft | 455 kts | 315° |
| 2026-04-25 04:09 | -5.66434 | -57.54409 | 35980 ft | 455 kts | 315° |
| 2026-04-25 04:09 | -5.62094 | -57.59048 | 35980 ft | 455 kts | 315° |
| 2026-04-25 04:10 | -5.57750 | -57.63691 | 35974 ft | 455 kts | 315° |
| 2026-04-25 04:10 | -5.53420 | -57.68317 | 35978 ft | 455 kts | 315° |
| 2026-04-25 04:11 | -5.46908 | -57.75273 | 35972 ft | 455 kts | 315° |
| 2026-04-25 04:12 | -5.42594 | -57.79880 | 35977 ft | 455 kts | 315° |
| 2026-04-25 04:12 | -5.38256 | -57.84510 | 35977 ft | 455 kts | 315° |
| 2026-04-25 04:13 | -5.33910 | -57.89149 | 35974 ft | 455 kts | 315° |
| 2026-04-25 04:13 | -5.29589 | -57.93761 | 35968 ft | 455 kts | 315° |
| 2026-04-25 04:14 | -5.25250 | -57.98390 | 35974 ft | 455 kts | 315° |
| 2026-04-25 04:14 | -5.20915 | -58.03014 | 35977 ft | 455 kts | 315° |
| 2026-04-25 04:15 | -5.16578 | -58.07639 | 35971 ft | 454 kts | 315° |
| 2026-04-25 04:15 | -5.12243 | -58.12260 | 35970 ft | 454 kts | 315° |
| 2026-04-25 04:16 | -5.07910 | -58.16880 | 35972 ft | 454 kts | 315° |
| 2026-04-25 04:16 | -5.03609 | -58.21463 | 35970 ft | 454 kts | 315° |
| 2026-04-25 04:17 | -4.99284 | -58.26072 | 35966 ft | 453 kts | 315° |
| 2026-04-25 04:17 | -4.94954 | -58.30685 | 35971 ft | 453 kts | 315° |
| 2026-04-25 04:18 | -4.90623 | -58.35297 | 35970 ft | 453 kts | 315° |
| 2026-04-25 04:18 | -4.86329 | -58.39870 | 35970 ft | 453 kts | 315° |
| 2026-04-25 04:19 | -4.81997 | -58.44482 | 35968 ft | 453 kts | 315° |
| 2026-04-25 04:19 | -4.77672 | -58.49085 | 35963 ft | 453 kts | 315° |
| 2026-04-25 04:20 | -4.73349 | -58.53686 | 35968 ft | 453 kts | 315° |
| 2026-04-25 04:20 | -4.69044 | -58.58267 | 35966 ft | 454 kts | 315° |
| 2026-04-25 04:21 | -4.64719 | -58.62868 | 35962 ft | 454 kts | 315° |
| 2026-04-25 04:21 | -4.62548 | -58.65176 | 35675 ft | 457 kts | 315° |
| 2026-04-25 04:21 | -4.60373 | -58.67490 | 35306 ft | 452 kts | 315° |
| 2026-04-25 04:21 | -4.58227 | -58.69772 | 34876 ft | 449 kts | 315° |
| 2026-04-25 04:22 | -4.56091 | -58.72044 | 34459 ft | 446 kts | 315° |
| 2026-04-25 04:22 | -4.53966 | -58.74304 | 34030 ft | 444 kts | 315° |
| 2026-04-25 04:22 | -4.51848 | -58.76555 | 33561 ft | 441 kts | 315° |
| 2026-04-25 04:22 | -4.49774 | -58.78760 | 33134 ft | 438 kts | 315° |
| 2026-04-25 04:23 | -4.47691 | -58.80975 | 32717 ft | 435 kts | 315° |
| 2026-04-25 04:23 | -4.45626 | -58.83170 | 32303 ft | 431 kts | 315° |
| 2026-04-25 04:23 | -4.43576 | -58.85349 | 31902 ft | 428 kts | 315° |
| 2026-04-25 04:23 | -4.41542 | -58.87510 | 31503 ft | 425 kts | 315° |
| 2026-04-25 04:24 | -4.39519 | -58.89660 | 31106 ft | 422 kts | 315° |
| 2026-04-25 04:24 | -4.37506 | -58.91799 | 30714 ft | 419 kts | 315° |
| 2026-04-25 04:24 | -4.35512 | -58.93917 | 30327 ft | 417 kts | 315° |
| 2026-04-25 04:24 | -4.33525 | -58.96028 | 29900 ft | 415 kts | 315° |
| 2026-04-25 04:25 | -4.31550 | -58.98125 | 29456 ft | 412 kts | 315° |
| 2026-04-25 04:25 | -4.29593 | -59.00205 | 29022 ft | 409 kts | 315° |
| 2026-04-25 04:25 | -4.27645 | -59.02273 | 28601 ft | 405 kts | 315° |
| 2026-04-25 04:25 | -4.25715 | -59.04323 | 28189 ft | 402 kts | 315° |
| 2026-04-25 04:26 | -4.23824 | -59.06331 | 27801 ft | 399 kts | 315° |
| 2026-04-25 04:26 | -4.21923 | -59.08350 | 27397 ft | 397 kts | 315° |
| 2026-04-25 04:26 | -4.20034 | -59.10355 | 27003 ft | 394 kts | 315° |
| 2026-04-25 04:26 | -4.18158 | -59.12347 | 26613 ft | 392 kts | 315° |
| 2026-04-25 04:27 | -4.16284 | -59.14336 | 26218 ft | 389 kts | 315° |
| 2026-04-25 04:27 | -4.14428 | -59.16306 | 25831 ft | 387 kts | 315° |
| 2026-04-25 04:27 | -4.12606 | -59.18240 | 25437 ft | 386 kts | 315° |
| 2026-04-25 04:27 | -4.10761 | -59.20198 | 25049 ft | 384 kts | 315° |
| 2026-04-25 04:28 | -4.08926 | -59.22145 | 24645 ft | 383 kts | 315° |
| 2026-04-25 04:28 | -4.07093 | -59.24090 | 24253 ft | 382 kts | 315° |
| 2026-04-25 04:28 | -4.05269 | -59.26026 | 23863 ft | 381 kts | 315° |
| 2026-04-25 04:28 | -4.03454 | -59.27952 | 23463 ft | 380 kts | 315° |
| 2026-04-25 04:29 | -4.01644 | -59.29872 | 23022 ft | 379 kts | 315° |
| 2026-04-25 04:29 | -3.99830 | -59.31797 | 22615 ft | 376 kts | 315° |
| 2026-04-25 04:29 | -3.98069 | -59.33665 | 22238 ft | 373 kts | 315° |
| 2026-04-25 04:29 | -3.96287 | -59.35555 | 21854 ft | 371 kts | 315° |
| 2026-04-25 04:30 | -3.94519 | -59.37431 | 21479 ft | 368 kts | 315° |
| 2026-04-25 04:30 | -3.92775 | -59.39281 | 21100 ft | 365 kts | 315° |
| 2026-04-25 04:30 | -3.91039 | -59.41122 | 20730 ft | 360 kts | 315° |
| 2026-04-25 04:30 | -3.89318 | -59.42948 | 20362 ft | 358 kts | 315° |
| 2026-04-25 04:31 | -3.87632 | -59.44736 | 20004 ft | 356 kts | 315° |
| 2026-04-25 04:31 | -3.85935 | -59.46535 | 19639 ft | 354 kts | 315° |
| 2026-04-25 04:31 | -3.84245 | -59.48327 | 19266 ft | 353 kts | 315° |
| 2026-04-25 04:31 | -3.82556 | -59.50116 | 18900 ft | 352 kts | 315° |
| 2026-04-25 04:32 | -3.80876 | -59.51898 | 18527 ft | 351 kts | 315° |
| 2026-04-25 04:32 | -3.79201 | -59.53673 | 18150 ft | 350 kts | 315° |
| 2026-04-25 04:32 | -3.77534 | -59.55440 | 17749 ft | 348 kts | 315° |
| 2026-04-25 04:32 | -3.75878 | -59.57196 | 17373 ft | 345 kts | 315° |
| 2026-04-25 04:33 | -3.74254 | -59.58917 | 17010 ft | 343 kts | 315° |
| 2026-04-25 04:33 | -3.72620 | -59.60649 | 16647 ft | 340 kts | 315° |
| 2026-04-25 04:33 | -3.70995 | -59.62371 | 16295 ft | 338 kts | 315° |
| 2026-04-25 04:33 | -3.69383 | -59.64080 | 15942 ft | 336 kts | 315° |
| 2026-04-25 04:34 | -3.67781 | -59.65777 | 15594 ft | 333 kts | 315° |
| 2026-04-25 04:34 | -3.66193 | -59.67460 | 15250 ft | 331 kts | 315° |
| 2026-04-25 04:34 | -3.64631 | -59.69115 | 14905 ft | 330 kts | 315° |
| 2026-04-25 04:34 | -3.63056 | -59.70783 | 14565 ft | 328 kts | 315° |
| 2026-04-25 04:35 | -3.61489 | -59.72443 | 14211 ft | 327 kts | 315° |
| 2026-04-25 04:35 | -3.59930 | -59.74095 | 13867 ft | 326 kts | 315° |
| 2026-04-25 04:35 | -3.58376 | -59.75741 | 13485 ft | 325 kts | 314° |
| 2026-04-25 04:35 | -3.56846 | -59.77361 | 13129 ft | 323 kts | 314° |
| 2026-04-25 04:36 | -3.55310 | -59.78988 | 12773 ft | 320 kts | 314° |
| 2026-04-25 04:36 | -3.53776 | -59.80613 | 12427 ft | 318 kts | 314° |
| 2026-04-25 04:36 | -3.52258 | -59.82221 | 12094 ft | 316 kts | 314° |
| 2026-04-25 04:36 | -3.50771 | -59.83796 | 11758 ft | 313 kts | 314° |
| 2026-04-25 04:37 | -3.49279 | -59.85377 | 11428 ft | 311 kts | 314° |
| 2026-04-25 04:37 | -3.47796 | -59.86947 | 11096 ft | 309 kts | 314° |
| 2026-04-25 04:37 | -3.46322 | -59.88508 | 10769 ft | 307 kts | 314° |
| 2026-04-25 04:37 | -3.44858 | -59.90058 | 10442 ft | 306 kts | 314° |
| 2026-04-25 04:38 | -3.43400 | -59.91601 | 10157 ft | 301 kts | 314° |
| 2026-04-25 04:38 | -3.42003 | -59.93082 | 10018 ft | 285 kts | 314° |
| 2026-04-25 04:38 | -3.40670 | -59.94494 | 9768 ft | 275 kts | 314° |
| 2026-04-25 04:38 | -3.39378 | -59.95862 | 9464 ft | 266 kts | 314° |
| 2026-04-25 04:39 | -3.38121 | -59.97193 | 9183 ft | 259 kts | 314° |
| 2026-04-25 04:39 | -3.36915 | -59.98470 | 8919 ft | 251 kts | 314° |
| 2026-04-25 04:39 | -3.35730 | -59.99726 | 8658 ft | 244 kts | 314° |
| 2026-04-25 04:39 | -3.34578 | -60.00945 | 8429 ft | 235 kts | 314° |
| 2026-04-25 04:40 | -3.33484 | -60.02103 | 8194 ft | 224 kts | 314° |
| 2026-04-25 04:40 | -3.32439 | -60.03210 | 7942 ft | 214 kts | 314° |
| 2026-04-25 04:40 | -3.31435 | -60.04273 | 7727 ft | 208 kts | 314° |
| 2026-04-25 04:40 | -3.30440 | -60.05327 | 7514 ft | 209 kts | 315° |
| 2026-04-25 04:41 | -3.29447 | -60.06377 | 7305 ft | 203 kts | 315° |
| 2026-04-25 04:41 | -3.28500 | -60.07380 | 7088 ft | 193 kts | 315° |
| 2026-04-25 04:41 | -3.27606 | -60.08326 | 6877 ft | 186 kts | 315° |
| 2026-04-25 04:41 | -3.26721 | -60.09263 | 6686 ft | 184 kts | 315° |
| 2026-04-25 04:42 | -3.25837 | -60.10198 | 6495 ft | 184 kts | 315° |
| 2026-04-25 04:42 | -3.24959 | -60.11127 | 6309 ft | 183 kts | 315° |
| 2026-04-25 04:42 | -3.24085 | -60.12052 | 6110 ft | 182 kts | 315° |
| 2026-04-25 04:42 | -3.23226 | -60.12962 | 5915 ft | 182 kts | 315° |
| 2026-04-25 04:43 | -3.22355 | -60.13883 | 5720 ft | 181 kts | 315° |
| 2026-04-25 04:43 | -3.21488 | -60.14800 | 5514 ft | 181 kts | 315° |
| 2026-04-25 04:43 | -3.20623 | -60.15717 | 5330 ft | 181 kts | 315° |
| 2026-04-25 04:43 | -3.19757 | -60.16634 | 5138 ft | 181 kts | 315° |
| 2026-04-25 04:44 | -3.18888 | -60.17552 | 4943 ft | 182 kts | 315° |
| 2026-04-25 04:44 | -3.18018 | -60.18473 | 4761 ft | 182 kts | 315° |
| 2026-04-25 04:44 | -3.17155 | -60.19385 | 4556 ft | 183 kts | 315° |
| 2026-04-25 04:44 | -3.16280 | -60.20311 | 4360 ft | 183 kts | 315° |
| 2026-04-25 04:45 | -3.15409 | -60.21233 | 4220 ft | 179 kts | 315° |
| 2026-04-25 04:45 | -3.14568 | -60.22122 | 4122 ft | 173 kts | 315° |
| 2026-04-25 04:45 | -3.13645 | -60.22824 | 4020 ft | 164 kts | 349° |
| 2026-04-25 04:45 | -3.12529 | -60.22829 | 4012 ft | 162 kts | 3° |
| 2026-04-25 04:46 | -3.11378 | -60.22829 | 3929 ft | 166 kts | 1° |
| 2026-04-25 04:46 | -3.10229 | -60.22836 | 3861 ft | 167 kts | 2° |
| 2026-04-25 04:46 | -3.09077 | -60.22841 | 3779 ft | 164 kts | 2° |
| 2026-04-25 04:46 | -3.07952 | -60.22843 | 3695 ft | 160 kts | 2° |
| 2026-04-25 04:47 | -3.06831 | -60.22843 | 3633 ft | 166 kts | 2° |
| 2026-04-25 04:47 | -3.06032 | -60.22841 | 3534 ft | 176 kts | 4° |
| 2026-04-25 04:47 | -3.04896 | -60.22460 | 3338 ft | 172 kts | 38° |
| 2026-04-25 04:47 | -3.04147 | -60.21572 | 3152 ft | 163 kts | 64° |
| 2026-04-25 04:48 | -3.03908 | -60.20516 | 2976 ft | 151 kts | 88° |
| 2026-04-25 04:48 | -3.03873 | -60.19495 | 2781 ft | 144 kts | 87° |
| 2026-04-25 04:48 | -3.03851 | -60.18498 | 2637 ft | 141 kts | 89° |
| 2026-04-25 04:48 | -3.03847 | -60.17528 | 2460 ft | 139 kts | 89° |
| 2026-04-25 04:49 | -3.03846 | -60.16569 | 2268 ft | 139 kts | 89° |
| 2026-04-25 04:49 | -3.03847 | -60.15605 | 2080 ft | 138 kts | 90° |
| 2026-04-25 04:49 | -3.03848 | -60.14642 | 1905 ft | 139 kts | 90° |
| 2026-04-25 04:49 | -3.03850 | -60.13674 | 1726 ft | 139 kts | 90° |
| 2026-04-25 04:50 | -3.03852 | -60.12707 | 1547 ft | 139 kts | 90° |
| 2026-04-25 04:50 | -3.03853 | -60.11745 | 1365 ft | 139 kts | 90° |
| 2026-04-25 04:50 | -3.03855 | -60.10771 | 1180 ft | 140 kts | 90° |
| 2026-04-25 04:50 | -3.03856 | -60.09794 | 1007 ft | 141 kts | 90° |
| 2026-04-25 04:51 | -3.03858 | -60.08809 | 823 ft | 142 kts | 90° |
| 2026-04-25 04:51 | -3.03859 | -60.07815 | 597 ft | 143 kts | 89° |
| 2026-04-25 04:51 | -3.03848 | -60.06843 | 451 ft | 141 kts | 90° |
| 2026-04-25 04:51 | -3.03847 | -60.05855 | 277 ft | 139 kts | 89° |
| 2026-04-25 04:52 | -3.03856 | -60.05030 | 267 ft | 85 kts | 91° |
| 2026-04-25 04:52 | -3.03861 | -60.04610 | 269 ft | 49 kts | 90° |
| 2026-04-25 04:52 | -3.03862 | -60.04287 | 268 ft | 45 kts | 90° |
| 2026-04-25 04:52 | -3.03861 | -60.03987 | 268 ft | 41 kts | 90° |
| 2026-04-25 04:53 | -3.03827 | -60.03786 | 268 ft | 23 kts | 36° |
| 2026-04-25 04:53 | -3.03703 | -60.03808 | 268 ft | 18 kts | 306° |
| 2026-04-25 04:53 | -3.03662 | -60.03924 | 268 ft | 18 kts | 285° |
| 2026-04-25 04:53 | -3.03632 | -60.04038 | 267 ft | 15 kts | 286° |
| 2026-04-25 04:54 | -3.03607 | -60.04126 | 267 ft | 13 kts | 285° |
| 2026-04-25 04:54 | -3.03582 | -60.04208 | 267 ft | 12 kts | 292° |
| 2026-04-25 04:54 | -3.03540 | -60.04282 | 267 ft | 12 kts | 308° |
| 2026-04-25 04:54 | -3.03479 | -60.04336 | 267 ft | 12 kts | 326° |
| 2026-04-25 04:55 | -3.03406 | -60.04371 | 267 ft | 11 kts | 342° |
| 2026-04-25 04:55 | -3.03339 | -60.04405 | 267 ft | 11 kts | 299° |
| 2026-04-25 04:55 | -3.03343 | -60.04480 | 267 ft | 11 kts | 258° |
| 2026-04-25 04:55 | -3.03356 | -60.04553 | 267 ft | 10 kts | 261° |
| 2026-04-25 04:56 | -3.03350 | -60.04617 | 267 ft | 7 kts | 304° |
| 2026-04-25 04:56 | -3.03309 | -60.04623 | 267 ft | 6 kts | 360° |
| 2026-04-25 04:56 | -3.03277 | -60.04622 | 267 ft | 0 kts | 1° |